Latest Coastal Weather Observations for Port Pirie Airport AWS***

IDS60701

Issued at 12:25 pm CST Thursday 28 August 2014 (issued every 10 minutes, with the page automatically refreshed every 10 minutes)

About coastal observations | Map of coastal stations | Coastal observations for SA | Marine services | Other Formats
Station Details ID: 250006 Name: PORT PIRIE AERODROME AWS Lat: -33.23 Lon: 138.00 Height: 10.0 m
Data from the previous 72 hours. | See also: Recent months for locations in South Australia
Date/Time
CST
Temp

°C
Wind Pressure Rain
since 9am
mm
Weather Cloud Vis
km
Sea
Height
m
Swell
Dir
 
Speed
knots
Gust
knots
hPa Trend Height
m
Period
s
Dir
28/12:00pm 23.3 N 6 11 - - 0.0 - - - - - - -
28/11:30am 22.4 N 5 9 - - 0.0 - - - - - - -
28/11:00am 22.2 N 5 9 - - 0.0 - - - - - - -
28/10:30am 21.5 N 3 5 - - 0.0 - - - - - - -
28/10:00am 20.1 WNW 3 5 - - 0.0 - - - - - - -
28/09:30am 18.0 W 1 3 - - 0.0 - - - - - - -
28/09:00am 15.1 SW 1 2 - - 0.0 - - - - - - -
28/08:30am 12.9 S 2 3 - - 0.0 - - - - - - -
28/08:00am 10.0 S 2 4 - - 0.0 - - - - - - -
28/07:30am 6.6 S 2 3 - - 0.0 - - - - - - -
28/07:00am 4.7 S 3 4 - - 0.0 - - - - - - -
28/06:30am 4.9 S 3 4 - - 0.0 - - - - - - -
28/06:00am 4.6 S 3 4 - - 0.0 - - - - - - -
28/05:30am 4.8 S 3 4 - - 0.0 - - - - - - -
28/05:00am 5.0 S 3 3 - - 0.0 - - - - - - -
28/04:30am 5.7 S 3 3 - - 0.0 - - - - - - -
28/04:00am 5.8 S 2 3 - - 0.0 - - - - - - -
28/03:30am 5.9 S 3 4 - - 0.0 - - - - - - -
28/03:00am 6.1 SSE 2 3 - - 0.0 - - - - - - -
28/02:30am 6.4 S 3 4 - - 0.0 - - - - - - -
28/02:00am 6.6 SSE 5 6 - - 0.0 - - - - - - -
28/01:30am 6.7 SSE 5 7 - - 0.0 - - - - - - -
28/01:00am 6.4 SSE 5 6 - - 0.0 - - - - - - -
28/12:30am 6.9 S 3 5 - - 0.0 - - - - - - -
28/12:00am 7.9 S 3 5 - - 0.0 - - - - - - -
 
Date/Time
CST
Temp

°C
Wind Pressure Rain
since 9am
mm
Weather Cloud Vis
km
Sea
Height
m
Swell
Dir
 
Speed
knots
Gust
knots
hPa Trend Height
m
Period
s
Dir
27/11:30pm 8.7 SE 4 6 - - 0.0 - - - - - - -
27/11:00pm 7.6 SSE 3 5 - - 0.0 - - - - - - -
27/10:30pm 7.7 S 4 4 - - 0.0 - - - - - - -
27/10:00pm 7.9 S 4 5 - - 0.0 - - - - - - -
27/09:30pm 8.4 S 5 6 - - 0.0 - - - - - - -
27/09:00pm 9.2 S 5 8 - - 0.0 - - - - - - -
27/08:30pm 9.1 SSE 5 6 - - 0.0 - - - - - - -
27/08:00pm 10.8 S 5 6 - - 0.0 - - - - - - -
27/07:30pm 9.7 ESE 4 5 - - 0.0 - - - - - - -
27/07:00pm 11.4 S 3 4 - - 0.0 - - - - - - -
27/06:30pm 13.3 SSW 4 5 - - 0.0 - - - - - - -
27/06:00pm 17.2 SW 4 5 - - 0.0 - - - - - - -
27/05:30pm 19.3 SW 4 6 - - 0.0 - - - - - - -
27/05:00pm 20.8 SSW 7 9 - - 0.0 - - - - - - -
27/04:30pm 21.3 SW 7 12 - - 0.0 - - - - - - -
27/04:00pm 21.8 SSW 7 12 - - 0.0 - - - - - - -
27/03:30pm 21.8 SW 4 8 - - 0.0 - - - - - - -
27/03:00pm 21.9 SSW 6 10 - - 0.0 - - - - - - -
27/02:30pm 22.5 SSW 5 8 - - 0.0 - - - - - - -
27/02:00pm 22.9 ESE 2 6 - - 0.0 - - - - - - -
27/01:30pm 21.9 S 5 9 - - 0.0 - - - - - - -
27/01:00pm 21.9 SW 3 6 - - 0.0 - - - - - - -
27/12:30pm 21.8 N 4 8 - - 0.0 - - - - - - -
27/12:00pm 20.8 ENE 3 7 - - 0.0 - - - - - - -
27/11:30am 21.0 N 3 6 - - 0.0 - - - - - - -
27/11:00am 20.5 W 2 7 - - 0.0 - - - - - - -
27/10:30am 19.4 N 2 6 - - 0.0 - - - - - - -
27/10:00am 18.3 SSE 1 2 - - 0.0 - - - - - - -
27/09:30am 15.6 S 1 2 - - 0.0 - - - - - - -
27/09:00am 13.4 SE 1 2 - - 0.0 - - - - - - -
27/08:30am 11.1 S 2 3 - - 0.0 - - - - - - -
27/08:00am 8.0 S 2 3 - - 0.0 - - - - - - -
27/07:30am 4.7 SSW 3 4 - - 0.0 - - - - - - -
27/07:00am 2.3 SSE 3 4 - - 0.0 - - - - - - -
27/06:30am 1.4 ESE 3 5 - - 0.0 - - - - - - -
27/06:00am 1.4 ESE 2 2 - - 0.0 - - - - - - -
27/05:30am 2.5 SE 2 2 - - 0.0 - - - - - - -
27/05:00am 2.4 SSE 3 4 - - 0.0 - - - - - - -
27/04:30am 2.5 S 3 4 - - 0.0 - - - - - - -
27/04:00am 2.7 S 3 4 - - 0.0 - - - - - - -
27/03:30am 3.0 S 3 4 - - 0.0 - - - - - - -
27/03:00am 3.3 S 3 4 - - 0.0 - - - - - - -
27/02:30am 3.5 S 3 4 - - 0.0 - - - - - - -
27/02:00am 4.8 S 3 3 - - 0.0 - - - - - - -
27/01:30am 4.3 S 3 4 - - 0.0 - - - - - - -
27/01:00am 4.6 S 3 4 - - 0.0 - - - - - - -
27/12:30am 4.7 SSE 3 3 - - 0.0 - - - - - - -
27/12:00am 5.2 S 3 4 - - 0.0 - - - - - - -
 
Date/Time
CST
Temp

°C
Wind Pressure Rain
since 9am
mm
Weather Cloud Vis
km
Sea
Height
m
Swell
Dir
 
Speed
knots
Gust
knots
hPa Trend Height
m
Period
s
Dir
26/11:30pm 5.3 S 3 4 - - 0.0 - - - - - - -
26/11:00pm 5.9 S 3 4 - - 0.0 - - - - - - -
26/10:30pm 6.4 SSE 4 6 - - 0.0 - - - - - - -
26/10:00pm 7.0 SSE 6 8 - - 0.0 - - - - - - -
26/09:30pm 7.4 SSE 6 7 - - 0.0 - - - - - - -
26/09:00pm 7.3 SSE 5 6 - - 0.0 - - - - - - -
26/08:30pm 8.0 SE 5 6 - - 0.0 - - - - - - -
26/08:00pm 10.0 SE 4 5 - - 0.0 - - - - - - -
26/07:30pm 10.4 SE 5 6 - - 0.0 - - - - - - -
26/07:00pm 11.3 SSE 6 6 - - 0.0 - - - - - - -
26/06:30pm 11.6 S 5 6 - - 0.0 - - - - - - -
26/06:00pm 13.8 S 5 5 - - 0.0 - - - - - - -
26/05:30pm 17.4 SSW 4 5 - - 0.0 - - - - - - -
26/05:00pm 19.1 SSW 5 7 - - 0.0 - - - - - - -
26/04:30pm 19.9 SSW 6 9 - - 0.0 - - - - - - -
26/04:00pm 20.1 SSW 7 10 - - 0.0 - - - - - - -
26/03:30pm 21.4 NNW 3 4 - - 0.0 - - - - - - -
26/03:00pm 21.2 W 4 8 - - 0.0 - - - - - - -
26/02:30pm 20.7 N 2 5 - - 0.0 - - - - - - -
26/02:00pm 20.9 WNW 3 6 - - 0.0 - - - - - - -
26/01:30pm 20.2 NE 3 7 - - 0.0 - - - - - - -
26/01:00pm 19.8 NNW 3 9 - - 0.0 - - - - - - -
26/12:30pm 19.8 N 5 9 - - 0.0 - - - - - - -
26/12:00pm 19.5 NNE 5 8 - - 0.0 - - - - - - -
26/11:30am 18.9 NNW 3 6 - - 0.0 - - - - - - -
26/11:00am 17.8 N 5 8 - - 0.0 - - - - - - -
26/10:30am 17.7 NNE 3 6 - - 0.0 - - - - - - -
26/10:00am 16.9 N 2 4 - - 0.0 - - - - - - -
26/09:30am 14.7 NNW 1 3 - - 0.0 - - - - - - -
26/09:00am 12.3 N 3 5 - - 0.0 - - - - - - -
26/08:30am 9.6 E 1 2 - - 0.0 - - - - - - -
26/08:00am 6.1 ESE 1 3 - - 0.0 - - - - - - -
26/07:30am 2.7 SE 2 3 - - 0.0 - - - - - - -
26/07:00am 0.7 SE 1 3 - - 0.0 - - - - - - -
26/06:30am 0.0 E 2 3 - - 0.0 - - - - - - -
26/06:00am 0.3 E 2 3 - - 0.0 - - - - - - -
26/05:30am 0.4 E 3 4 - - 0.0 - - - - - - -
26/05:00am 2.4 ESE 1 2 - - 0.0 - - - - - - -
26/04:30am 3.0 S 1 2 - - 0.0 - - - - - - -
26/04:00am 2.8 SSE 1 4 - - 0.0 - - - - - - -
26/03:30am 3.2 ESE 2 3 - - 0.0 - - - - - - -
26/03:00am 4.5 SE 2 3 - - 0.0 - - - - - - -
26/02:30am 5.4 SSE 3 5 - - 0.0 - - - - - - -
26/02:00am 6.5 SSE 6 9 - - 0.0 - - - - - - -
26/01:30am 6.9 SSE 6 9 - - 0.0 - - - - - - -
26/01:00am 7.7 S 7 10 - - 0.0 - - - - - - -
26/12:30am 8.1 S 7 9 - - 0.0 - - - - - - -
26/12:00am 8.8 S 7 9 - - 0.0 - - - - - - -
 
Date/Time
CST
Temp

°C
Wind Pressure Rain
since 9am
mm
Weather Cloud Vis
km
Sea
Height
m
Swell
Dir
 
Speed
knots
Gust
knots
hPa Trend Height
m
Period
s
Dir
25/11:30pm 9.4 SE 9 13 - - 0.0 - - - - - - -
25/11:00pm 9.0 SE 6 9 - - 0.0 - - - - - - -
25/10:30pm 9.2 SE 7 11 - - 0.0 - - - - - - -
25/10:00pm 9.0 SE 6 9 - - 0.0 - - - - - - -
25/09:30pm 8.8 SE 6 9 - - 0.0 - - - - - - -
25/09:00pm 6.9 SE 4 6 - - 0.0 - - - - - - -
25/08:30pm 7.0 S 3 4 - - 0.0 - - - - - - -
25/08:00pm 7.5 S 5 5 - - 0.0 - - - - - - -
25/07:30pm 8.7 SE 4 5 - - 0.0 - - - - - - -
25/07:00pm 8.8 SE 4 5 - - 0.0 - - - - - - -
25/06:30pm 10.6 SSE 4 6 - - 0.0 - - - - - - -
25/06:00pm 12.5 S 6 6 - - 0.0 - - - - - - -
25/05:30pm 15.8 SSW 5 7 - - 0.0 - - - - - - -
25/05:00pm 17.9 SW 6 9 - - 0.0 - - - - - - -
25/04:30pm 20.4 WNW 2 5 - - 0.0 - - - - - - -
25/04:00pm 20.2 NNW 3 6 - - 0.0 - - - - - - -
25/03:30pm 20.1 NW 4 9 - - 0.0 - - - - - - -
25/03:00pm 20.4 NW 4 6 - - 0.0 - - - - - - -
25/02:30pm 20.5 NW 4 7 - - 0.0 - - - - - - -
25/02:00pm 20.0 N 4 7 - - 0.0 - - - - - - -
25/01:30pm 19.8 W 2 5 - - 0.0 - - - - - - -
25/01:00pm 19.2 WNW 3 7 - - 0.0 - - - - - - -
25/12:30pm 19.1 WSW 3 6 - - 0.0 - - - - - - -

Other Formats:

Comma delimited format used in spreadsheet applications
http://www.bom.gov.au/fwo/IDS60701/IDS60701.99001.axf

JavaScript Object Notation format (JSON) in row-major order
http://www.bom.gov.au/fwo/IDS60701/IDS60701.99001.json